createdAt,value
2023-10-23T00:01:48.703Z,100.00
2023-10-23T00:04:16.321Z,100.00
2023-10-23T00:06:44.178Z,100.00
2023-10-23T00:09:11.425Z,100.00
2023-10-23T00:11:39.358Z,100.00
2023-10-23T00:14:07.881Z,100.00
2023-10-23T00:16:35.559Z,100.00
2023-10-23T00:19:03.052Z,100.00
2023-10-23T00:21:30.302Z,100.00
2023-10-23T00:23:57.494Z,100.00
2023-10-23T00:26:25.937Z,100.00
2023-10-23T00:28:53.576Z,100.00
2023-10-23T00:31:21.285Z,100.00
2023-10-23T00:33:48.849Z,100.00
2023-10-23T00:36:16.219Z,100.00
2023-10-23T00:38:43.966Z,100.00
2023-10-23T00:41:11.675Z,100.00
2023-10-23T00:43:38.819Z,100.00
2023-10-23T00:46:17.403Z,100.00
2023-10-23T00:48:46.970Z,100.00
2023-10-23T00:51:16.370Z,100.00
2023-10-23T00:53:45.021Z,100.00
2023-10-23T00:56:13.054Z,100.00
2023-10-23T00:58:43.603Z,100.00
2023-10-23T01:01:13.386Z,100.00
2023-10-23T01:03:42.522Z,100.00
2023-10-23T01:06:11.145Z,100.00
2023-10-23T01:08:38.459Z,100.00
2023-10-23T01:11:05.946Z,100.00
2023-10-23T01:13:33.665Z,100.00
2023-10-23T01:16:00.839Z,100.00
2023-10-23T01:18:28.826Z,100.00
2023-10-23T01:20:56.121Z,100.00
2023-10-23T01:23:28.885Z,100.00
2023-10-23T01:25:56.842Z,100.00
2023-10-23T01:28:24.580Z,100.00
2023-10-23T01:30:52.422Z,100.00
2023-10-23T01:33:22.383Z,100.00
2023-10-23T01:35:57.423Z,100.00
2023-10-23T01:38:26.175Z,100.00
2023-10-23T01:40:53.809Z,100.00
2023-10-23T01:43:21.099Z,100.00
2023-10-23T01:45:48.573Z,100.00
2023-10-23T01:48:15.817Z,100.00
2023-10-23T01:50:43.560Z,100.00
2023-10-23T01:53:10.995Z,100.00
2023-10-23T01:55:44.094Z,100.00
2023-10-23T01:58:11.655Z,100.00
2023-10-23T02:00:39.397Z,100.00
2023-10-23T02:03:07.009Z,100.00
2023-10-23T02:05:34.666Z,100.00
2023-10-23T02:08:01.826Z,100.00
2023-10-23T02:10:30.217Z,100.00
2023-10-23T02:12:57.452Z,100.00
2023-10-23T02:15:24.834Z,100.00
2023-10-23T02:17:52.834Z,100.00
2023-10-23T02:20:20.332Z,100.00
2023-10-23T02:22:47.992Z,100.00
2023-10-23T02:25:15.222Z,100.00
2023-10-23T02:27:43.126Z,100.00
2023-10-23T02:30:10.881Z,100.00
2023-10-23T02:32:38.202Z,100.00
2023-10-23T02:35:06.629Z,100.00
2023-10-23T02:37:33.819Z,100.00
2023-10-23T02:40:01.528Z,100.00
2023-10-23T02:42:29.015Z,100.00
2023-10-23T02:44:56.762Z,100.00
2023-10-23T02:47:23.941Z,100.00
2023-10-23T02:49:54.425Z,100.00
2023-10-23T02:52:22.199Z,100.00
2023-10-23T02:54:51.678Z,100.00
2023-10-23T02:57:19.220Z,100.00
2023-10-23T02:59:48.206Z,100.00
2023-10-23T03:02:17.825Z,100.00
2023-10-23T03:04:45.452Z,100.00
2023-10-23T03:07:12.694Z,100.00
2023-10-23T03:09:40.153Z,100.00
2023-10-23T03:12:08.070Z,100.00
2023-10-23T03:14:35.728Z,100.00
2023-10-23T03:17:02.987Z,100.00
2023-10-23T03:19:30.404Z,100.00
2023-10-23T03:21:58.738Z,100.00
2023-10-23T03:24:26.124Z,100.00
2023-10-23T03:26:54.357Z,100.00
2023-10-23T03:29:22.109Z,100.00
2023-10-23T03:31:49.850Z,100.00
2023-10-23T03:34:17.812Z,100.00
2023-10-23T03:36:45.669Z,100.00
2023-10-23T03:39:12.867Z,100.00
2023-10-23T03:41:40.409Z,100.00
2023-10-23T03:44:09.189Z,100.00
2023-10-23T03:46:39.992Z,100.00
2023-10-23T03:49:08.055Z,100.00
2023-10-23T03:51:35.980Z,100.00
2023-10-23T03:54:08.751Z,100.00
2023-10-23T03:56:36.296Z,100.00
2023-10-23T03:59:06.664Z,100.00
2023-10-23T04:01:34.329Z,100.00
2023-10-23T04:04:02.060Z,100.00
2023-10-23T04:06:29.340Z,100.00
2023-10-23T04:08:56.542Z,100.00
2023-10-23T04:11:25.017Z,100.00
2023-10-23T04:13:52.208Z,100.00
2023-10-23T04:16:19.894Z,100.00
2023-10-23T04:18:47.787Z,100.00
2023-10-23T04:21:15.635Z,100.00
2023-10-23T04:23:42.783Z,100.00
2023-10-23T04:26:10.380Z,100.00
2023-10-23T04:28:38.175Z,100.00
2023-10-23T04:31:06.170Z,100.00
2023-10-23T04:33:34.918Z,100.00
2023-10-23T04:36:03.737Z,100.00
2023-10-23T04:38:32.420Z,100.00
2023-10-23T04:40:59.893Z,100.00
2023-10-23T04:43:27.606Z,100.00
2023-10-23T04:45:57.932Z,100.00
2023-10-23T04:48:28.570Z,100.00
2023-10-23T04:51:03.473Z,100.00
2023-10-23T04:53:30.933Z,100.00
2023-10-23T04:56:00.283Z,100.00
2023-10-23T04:58:27.788Z,100.00
2023-10-23T05:00:55.503Z,100.00
2023-10-23T05:03:22.794Z,100.00
2023-10-23T05:05:50.112Z,100.00
2023-10-23T05:08:17.587Z,100.00
2023-10-23T05:10:45.256Z,100.00
2023-10-23T05:13:12.398Z,100.00
2023-10-23T05:15:40.514Z,100.00
2023-10-23T05:18:09.270Z,100.00
2023-10-23T05:20:37.735Z,100.00
2023-10-23T05:23:05.356Z,100.00
2023-10-23T05:25:36.288Z,100.00
2023-10-23T05:28:03.588Z,100.00
2023-10-23T05:30:31.121Z,100.00
2023-10-23T05:32:58.311Z,100.00
2023-10-23T05:35:25.462Z,100.00
2023-10-23T05:37:52.904Z,100.00
2023-10-23T05:40:20.078Z,100.00
2023-10-23T05:42:47.769Z,100.00
2023-10-23T05:45:16.844Z,100.00
2023-10-23T05:47:44.052Z,100.00
2023-10-23T05:50:14.693Z,100.00
2023-10-23T05:52:43.414Z,100.00
2023-10-23T05:55:11.511Z,100.00
2023-10-23T05:57:38.735Z,100.00
2023-10-23T06:00:10.002Z,100.00
2023-10-23T06:02:37.990Z,100.00
2023-10-23T06:05:05.588Z,100.00
2023-10-23T06:07:32.817Z,100.00
2023-10-23T06:10:02.055Z,100.00
2023-10-23T06:12:32.039Z,100.00
2023-10-23T06:15:00.189Z,100.00
2023-10-23T06:17:27.784Z,100.00
2023-10-23T06:19:54.994Z,100.00
2023-10-23T06:22:22.249Z,100.00
2023-10-23T06:24:50.940Z,100.00
2023-10-23T06:27:18.221Z,100.00
2023-10-23T06:29:45.902Z,100.00
2023-10-23T06:32:14.413Z,100.00
2023-10-23T06:34:41.723Z,100.00
2023-10-23T06:37:09.424Z,100.00
2023-10-23T06:39:38.160Z,100.00
2023-10-23T06:42:05.841Z,100.00
2023-10-23T06:44:32.994Z,100.00
2023-10-23T06:47:01.986Z,100.00
2023-10-23T06:49:29.119Z,100.00
2023-10-23T06:51:56.232Z,100.00
2023-10-23T06:54:25.152Z,100.00
2023-10-23T06:57:12.182Z,100.00
2023-10-23T06:59:40.122Z,100.00
2023-10-23T07:02:08.089Z,100.00
2023-10-23T07:04:35.372Z,100.00
2023-10-23T07:07:10.860Z,100.00
2023-10-23T07:09:46.544Z,100.00
2023-10-23T07:12:14.622Z,100.00
2023-10-23T07:14:41.865Z,100.00
2023-10-23T07:17:10.090Z,100.00
2023-10-23T07:19:37.918Z,100.00
2023-10-23T07:22:05.218Z,100.00
2023-10-23T07:24:32.868Z,100.00
2023-10-23T07:27:01.053Z,100.00
2023-10-23T07:29:28.242Z,100.00
2023-10-23T07:31:55.869Z,100.00
2023-10-23T07:34:23.425Z,100.00
2023-10-23T07:36:51.111Z,100.00
2023-10-23T07:39:19.457Z,100.00
2023-10-23T07:41:47.466Z,100.00
2023-10-23T07:44:15.185Z,100.00
2023-10-23T07:46:44.542Z,100.00
2023-10-23T07:49:12.096Z,100.00
2023-10-23T07:51:39.719Z,100.00
2023-10-23T07:54:07.060Z,100.00
2023-10-23T07:56:34.538Z,100.00
2023-10-23T07:59:01.689Z,100.00
2023-10-23T08:01:29.199Z,100.00
2023-10-23T08:03:56.915Z,100.00
2023-10-23T08:06:24.160Z,100.00
2023-10-23T08:08:51.318Z,100.00
2023-10-23T08:11:18.791Z,100.00
2023-10-23T08:13:45.971Z,100.00
2023-10-23T08:16:13.397Z,100.00
2023-10-23T08:18:42.184Z,99.64
2023-10-23T08:21:10.990Z,100.00
2023-10-23T08:23:38.400Z,99.66
2023-10-23T08:26:08.687Z,99.99
2023-10-23T08:28:58.595Z,99.76
2023-10-23T08:31:38.524Z,98.32
2023-10-23T08:34:08.862Z,97.57
2023-10-23T08:36:36.923Z,95.58
2023-10-23T08:39:04.560Z,95.13
2023-10-23T08:41:32.842Z,95.34
2023-10-23T08:44:01.090Z,95.53
2023-10-23T08:46:33.791Z,94.64
2023-10-23T08:49:03.089Z,94.53
2023-10-23T08:51:33.645Z,94.33
2023-10-23T08:54:11.568Z,93.85
2023-10-23T08:56:43.607Z,91.31
2023-10-23T08:59:16.478Z,91.32
2023-10-23T09:01:44.124Z,90.72
2023-10-23T09:04:12.864Z,89.93
2023-10-23T09:06:40.792Z,90.65
2023-10-23T09:09:10.624Z,90.18
2023-10-23T09:11:48.680Z,91.24
2023-10-23T09:14:28.469Z,89.48
2023-10-23T09:16:57.143Z,89.04
2023-10-23T09:19:38.091Z,87.38
2023-10-23T09:22:08.319Z,87.93
2023-10-23T09:24:36.892Z,88.03
2023-10-23T09:27:07.279Z,85.34
2023-10-23T09:29:35.961Z,85.39
2023-10-23T09:32:04.180Z,85.01
2023-10-23T09:34:34.521Z,84.20
2023-10-23T09:37:02.543Z,84.61
2023-10-23T09:39:30.101Z,84.52
2023-10-23T09:41:57.341Z,84.10
2023-10-23T09:44:27.729Z,84.86
2023-10-23T09:46:55.324Z,82.40
2023-10-23T09:49:23.388Z,82.87
2023-10-23T09:51:52.403Z,82.33
2023-10-23T09:54:23.740Z,81.54
2023-10-23T09:56:53.126Z,78.70
2023-10-23T09:59:26.303Z,78.08
2023-10-23T10:01:58.879Z,78.69
2023-10-23T10:04:32.452Z,77.96
2023-10-23T10:07:07.393Z,76.90
2023-10-23T10:09:35.644Z,78.82
2023-10-23T10:12:04.829Z,79.31
2023-10-23T10:14:34.123Z,77.96
2023-10-23T10:17:02.860Z,78.59
2023-10-23T10:19:31.934Z,79.43
2023-10-23T10:22:16.221Z,79.18
2023-10-23T10:24:44.672Z,78.21
2023-10-23T10:27:12.218Z,78.22
2023-10-23T10:29:39.637Z,78.23
2023-10-23T10:32:12.170Z,79.24
2023-10-23T10:34:46.207Z,78.38
2023-10-23T10:39:49.269Z,79.19
2023-10-23T10:42:20.482Z,78.73
2023-10-23T10:45:15.918Z,78.68
2023-10-23T10:47:52.721Z,79.29
2023-10-23T10:50:34.732Z,79.14
2023-10-23T10:53:07.294Z,79.96
2023-10-23T10:55:35.993Z,79.58
2023-10-23T10:58:04.718Z,79.48
2023-10-23T11:00:39.535Z,80.81
2023-10-23T11:03:08.421Z,80.53
2023-10-23T11:05:37.478Z,80.37
2023-10-23T11:08:05.094Z,79.73
2023-10-23T11:10:34.010Z,79.74
2023-10-23T11:13:01.683Z,80.63
2023-10-23T11:15:29.813Z,80.66
2023-10-23T11:17:57.272Z,80.03
2023-10-23T11:20:29.470Z,79.77
2023-10-23T11:22:56.931Z,79.05
2023-10-23T11:25:24.213Z,80.80
2023-10-23T11:27:52.788Z,80.67
2023-10-23T11:30:25.430Z,80.39
2023-10-23T11:32:52.967Z,81.24
2023-10-23T11:35:21.243Z,80.21
2023-10-23T11:37:49.716Z,80.25
2023-10-23T11:40:20.851Z,77.23
2023-10-23T11:42:56.379Z,77.91
2023-10-23T11:45:23.777Z,78.91
2023-10-23T11:47:54.363Z,77.89
2023-10-23T11:50:23.232Z,78.43
2023-10-23T11:52:50.900Z,78.82
2023-10-23T11:55:19.506Z,78.87
2023-10-23T11:57:48.564Z,78.66
2023-10-23T12:00:17.972Z,77.25
2023-10-23T12:02:47.800Z,76.80
2023-10-23T12:05:23.106Z,76.97
2023-10-23T12:07:54.073Z,78.25
2023-10-23T12:10:23.034Z,77.73
2023-10-23T12:12:53.774Z,77.21
2023-10-23T12:15:24.309Z,78.24
2023-10-23T12:17:52.370Z,77.72
2023-10-23T12:20:23.200Z,78.36
2023-10-23T12:22:52.728Z,77.99
2023-10-23T12:25:21.013Z,78.61
2023-10-23T12:27:48.428Z,79.42
2023-10-23T12:30:21.764Z,79.51
2023-10-23T12:33:15.066Z,80.47
2023-10-23T12:35:42.584Z,79.75
2023-10-23T12:38:12.114Z,79.81
2023-10-23T12:40:44.326Z,80.85
2023-10-23T12:43:12.640Z,79.75
2023-10-23T12:45:42.784Z,80.11
2023-10-23T12:48:11.330Z,81.17
2023-10-23T12:50:39.385Z,82.02
2023-10-23T12:53:06.880Z,82.12
2023-10-23T12:55:34.596Z,82.02
2023-10-23T12:58:05.647Z,81.76
2023-10-23T13:00:33.245Z,81.09
2023-10-23T13:03:17.686Z,82.49
2023-10-23T13:05:45.179Z,81.06
2023-10-23T13:08:12.322Z,80.93
2023-10-23T13:10:41.288Z,82.86
2023-10-23T13:13:08.794Z,81.82
2023-10-23T13:15:37.615Z,81.68
2023-10-23T13:18:04.912Z,79.45
2023-10-23T13:20:51.358Z,78.56
2023-10-23T13:23:20.097Z,79.58
2023-10-23T13:25:58.055Z,78.70
2023-10-23T13:28:29.190Z,79.56
2023-10-23T13:30:56.901Z,79.51
2023-10-23T13:33:25.182Z,78.15
2023-10-23T13:36:00.392Z,77.81
2023-10-23T13:38:27.945Z,77.83
2023-10-23T13:40:57.092Z,78.15
2023-10-23T13:43:26.133Z,79.06
2023-10-23T13:45:55.001Z,78.44
2023-10-23T13:48:22.186Z,77.71
2023-10-23T13:50:52.508Z,77.32
2023-10-23T13:53:22.207Z,77.46
2023-10-23T13:55:50.448Z,76.68
2023-10-23T13:58:19.378Z,76.57
2023-10-23T14:00:49.292Z,75.84
2023-10-23T14:03:19.236Z,75.51
2023-10-23T14:05:46.512Z,74.99
2023-10-23T14:08:13.683Z,75.27
2023-10-23T14:10:41.197Z,75.73
2023-10-23T14:13:08.412Z,76.57
2023-10-23T14:15:35.683Z,76.69
2023-10-23T14:18:06.194Z,76.75
2023-10-23T14:20:33.980Z,77.53
2023-10-23T14:23:01.296Z,78.22
2023-10-23T14:25:28.803Z,78.05
2023-10-23T14:27:56.035Z,77.55
2023-10-23T14:30:23.243Z,78.03
2023-10-23T14:32:50.791Z,79.00
2023-10-23T14:35:17.987Z,80.01
2023-10-23T14:37:45.144Z,79.47
2023-10-23T14:40:13.837Z,77.88
2023-10-23T14:42:41.080Z,77.83
2023-10-23T14:45:08.720Z,78.79
2023-10-23T14:47:37.132Z,80.81
2023-10-23T14:50:06.301Z,81.36
2023-10-23T14:52:36.564Z,81.37
2023-10-23T14:55:05.981Z,81.88
2023-10-23T14:57:33.259Z,83.06
2023-10-23T15:00:01.300Z,85.23
2023-10-23T15:02:28.932Z,86.47
2023-10-23T15:04:56.618Z,87.93
2023-10-23T15:07:23.845Z,88.75
2023-10-23T15:09:54.141Z,88.74
2023-10-23T15:12:21.453Z,91.01
2023-10-23T15:14:48.598Z,92.87
2023-10-23T15:17:16.070Z,94.38
2023-10-23T15:19:43.242Z,96.24
2023-10-23T15:22:10.406Z,97.80
2023-10-23T15:24:37.874Z,98.45
2023-10-23T15:27:05.257Z,99.18
2023-10-23T15:29:32.426Z,100.00
2023-10-23T15:32:00.022Z,100.00
2023-10-23T15:34:30.442Z,100.00
2023-10-23T15:36:57.738Z,100.00
2023-10-23T15:39:25.253Z,100.00
2023-10-23T15:41:52.454Z,100.00
2023-10-23T15:44:19.611Z,100.00
2023-10-23T15:46:50.167Z,100.00
2023-10-23T15:49:18.252Z,100.00
2023-10-23T15:51:45.474Z,100.00
2023-10-23T15:54:12.889Z,100.00
2023-10-23T15:56:41.428Z,100.00
2023-10-23T15:59:09.688Z,100.00
2023-10-23T16:01:37.229Z,100.00
2023-10-23T16:04:05.194Z,100.00
2023-10-23T16:06:34.450Z,100.00
2023-10-23T16:09:13.244Z,100.00
2023-10-23T16:11:45.861Z,100.00
2023-10-23T16:14:13.792Z,100.00
2023-10-23T16:16:41.637Z,100.00
2023-10-23T16:19:09.723Z,100.00
2023-10-23T16:21:37.378Z,100.00
2023-10-23T16:24:05.966Z,100.00
2023-10-23T16:26:34.270Z,100.00
2023-10-23T16:29:01.893Z,100.00
2023-10-23T16:31:29.276Z,100.00
2023-10-23T16:33:57.365Z,100.00
2023-10-23T16:36:25.053Z,100.00
2023-10-23T16:38:54.084Z,100.00
2023-10-23T16:41:21.562Z,100.00
2023-10-23T16:43:54.640Z,100.00
2023-10-23T16:46:22.901Z,100.00
2023-10-23T16:48:52.970Z,100.00
2023-10-23T16:51:26.211Z,100.00
2023-10-23T16:53:53.641Z,100.00
2023-10-23T16:56:20.823Z,100.00
2023-10-23T16:58:48.909Z,100.00
2023-10-23T17:01:16.559Z,100.00
2023-10-23T17:03:43.942Z,100.00
2023-10-23T17:06:14.546Z,100.00
2023-10-23T17:08:42.181Z,100.00
2023-10-23T17:11:11.482Z,100.00
2023-10-23T17:13:39.187Z,100.00
2023-10-23T17:16:08.517Z,100.00
2023-10-23T17:18:35.685Z,100.00
2023-10-23T17:21:03.387Z,100.00
2023-10-23T17:23:32.254Z,100.00
2023-10-23T17:26:01.740Z,100.00
2023-10-23T17:28:29.018Z,100.00
2023-10-23T17:31:02.305Z,100.00
2023-10-23T17:33:31.942Z,100.00
2023-10-23T17:36:00.068Z,100.00
2023-10-23T17:38:27.670Z,100.00
2023-10-23T17:40:58.804Z,100.00
2023-10-23T17:43:28.387Z,100.00
2023-10-23T17:46:04.228Z,100.00
2023-10-23T17:48:35.125Z,100.00
2023-10-23T17:51:04.396Z,100.00
2023-10-23T17:53:42.033Z,100.00
2023-10-23T17:56:17.714Z,100.00
2023-10-23T17:58:48.055Z,100.00
2023-10-23T18:01:18.988Z,100.00
2023-10-23T18:03:46.970Z,100.00
2023-10-23T18:06:19.062Z,100.00
2023-10-23T18:08:48.893Z,100.00
2023-10-23T18:11:18.230Z,100.00
2023-10-23T18:13:45.404Z,100.00
2023-10-23T18:16:14.177Z,100.00
2023-10-23T18:18:45.528Z,100.00
2023-10-23T18:21:12.962Z,100.00
2023-10-23T18:23:40.157Z,100.00
2023-10-23T18:26:07.316Z,100.00
2023-10-23T18:28:35.474Z,100.00
2023-10-23T18:31:05.486Z,100.00
2023-10-23T18:33:32.742Z,100.00
2023-10-23T18:36:05.449Z,100.00
2023-10-23T18:38:35.694Z,100.00
2023-10-23T18:41:03.259Z,100.00
2023-10-23T18:43:32.787Z,100.00
2023-10-23T18:46:04.013Z,100.00
2023-10-23T18:48:32.912Z,100.00
2023-10-23T18:51:01.112Z,100.00
2023-10-23T18:53:29.405Z,100.00
2023-10-23T18:55:59.434Z,100.00
2023-10-23T18:58:26.582Z,100.00
2023-10-23T19:00:53.791Z,100.00
2023-10-23T19:03:23.666Z,100.00
2023-10-23T19:05:57.728Z,100.00
2023-10-23T19:08:26.034Z,100.00
2023-10-23T19:10:56.479Z,100.00
2023-10-23T19:13:24.244Z,100.00
2023-10-23T19:16:03.280Z,100.00
2023-10-23T19:18:31.497Z,100.00
2023-10-23T19:21:06.295Z,100.00
2023-10-23T19:23:35.115Z,100.00
2023-10-23T19:26:04.472Z,100.00
2023-10-23T19:28:31.650Z,100.00
2023-10-23T19:30:59.641Z,100.00
2023-10-23T19:33:27.493Z,100.00
2023-10-23T19:35:54.887Z,100.00
2023-10-23T19:38:22.733Z,100.00
2023-10-23T19:40:52.127Z,100.00
2023-10-23T19:43:22.394Z,100.00
2023-10-23T19:45:50.088Z,100.00
2023-10-23T19:48:17.556Z,100.00
2023-10-23T19:50:46.969Z,100.00
2023-10-23T19:53:18.505Z,100.00
2023-10-23T19:55:53.164Z,100.00
2023-10-23T19:58:21.438Z,100.00
2023-10-23T20:00:48.700Z,100.00
2023-10-23T20:03:16.197Z,100.00
2023-10-23T20:05:43.614Z,100.00
2023-10-23T20:08:10.885Z,100.00
2023-10-23T20:10:39.403Z,100.00
2023-10-23T20:13:07.778Z,100.00
2023-10-23T20:15:36.463Z,100.00
2023-10-23T20:18:04.351Z,100.00
2023-10-23T20:20:34.423Z,100.00
2023-10-23T20:23:02.868Z,100.00
2023-10-23T20:25:33.802Z,100.00
2023-10-23T20:28:01.816Z,100.00
2023-10-23T20:30:33.023Z,100.00
2023-10-23T20:33:00.978Z,100.00
2023-10-23T20:35:28.276Z,100.00
2023-10-23T20:37:55.493Z,100.00
2023-10-23T20:40:23.072Z,100.00
2023-10-23T20:42:50.306Z,100.00
2023-10-23T20:45:17.527Z,100.00
2023-10-23T20:47:45.008Z,100.00
2023-10-23T20:50:12.177Z,100.00
2023-10-23T20:52:39.492Z,100.00
2023-10-23T20:55:07.287Z,100.00
2023-10-23T20:57:34.574Z,100.00
2023-10-23T21:00:01.750Z,100.00
2023-10-23T21:02:31.963Z,100.00
2023-10-23T21:04:59.259Z,100.00
2023-10-23T21:07:26.571Z,100.00
2023-10-23T21:09:54.557Z,100.00
2023-10-23T21:12:23.396Z,100.00
2023-10-23T21:14:50.614Z,100.00
2023-10-23T21:17:19.726Z,100.00
2023-10-23T21:19:47.232Z,100.00
2023-10-23T21:22:14.436Z,100.00
2023-10-23T21:24:42.836Z,100.00
2023-10-23T21:27:10.681Z,100.00
2023-10-23T21:29:43.029Z,100.00
2023-10-23T21:32:10.633Z,100.00
2023-10-23T21:34:37.897Z,100.00
2023-10-23T21:37:05.559Z,100.00
2023-10-23T21:39:33.073Z,100.00
2023-10-23T21:42:00.731Z,100.00
2023-10-23T21:44:31.682Z,100.00
2023-10-23T21:46:59.256Z,100.00
2023-10-23T21:49:26.590Z,100.00
2023-10-23T21:51:54.572Z,100.00
2023-10-23T21:54:22.330Z,100.00
2023-10-23T21:57:21.360Z,100.00
2023-10-23T21:59:38.083Z,100.00
2023-10-23T22:02:06.050Z,100.00
2023-10-23T22:04:34.126Z,100.00
2023-10-23T22:07:02.183Z,100.00
2023-10-23T22:09:29.662Z,100.00
2023-10-23T22:11:57.910Z,100.00
2023-10-23T22:14:25.402Z,100.00
2023-10-23T22:16:53.047Z,100.00
2023-10-23T22:19:20.819Z,100.00
2023-10-23T22:21:48.488Z,100.00
2023-10-23T22:24:15.616Z,100.00
2023-10-23T22:26:43.563Z,100.00
2023-10-23T22:29:11.249Z,100.00
2023-10-23T22:31:38.483Z,100.00
2023-10-23T22:34:06.492Z,100.00
2023-10-23T22:36:34.128Z,100.00
2023-10-23T22:39:01.245Z,100.00
2023-10-23T22:41:29.879Z,100.00
2023-10-23T22:43:57.198Z,100.00
2023-10-23T22:46:24.928Z,100.00
2023-10-23T22:48:52.445Z,100.00
2023-10-23T22:51:19.803Z,100.00
2023-10-23T22:53:47.214Z,100.00
2023-10-23T22:56:16.178Z,100.00
2023-10-23T22:58:43.595Z,100.00
2023-10-23T23:01:11.070Z,100.00
2023-10-23T23:03:38.903Z,100.00
2023-10-23T23:06:06.881Z,100.00
2023-10-23T23:08:40.401Z,100.00
2023-10-23T23:11:08.510Z,100.00
2023-10-23T23:13:36.527Z,100.00
2023-10-23T23:16:05.345Z,100.00
2023-10-23T23:18:34.408Z,100.00
2023-10-23T23:21:04.382Z,100.00
2023-10-23T23:23:32.049Z,100.00
2023-10-23T23:25:59.509Z,100.00
2023-10-23T23:28:27.164Z,100.00
2023-10-23T23:30:54.368Z,100.00
2023-10-23T23:33:21.875Z,100.00
2023-10-23T23:35:49.621Z,100.00
2023-10-23T23:38:18.447Z,100.00
2023-10-23T23:40:45.886Z,100.00
2023-10-23T23:43:13.554Z,100.00
2023-10-23T23:45:41.498Z,100.00
2023-10-23T23:48:09.042Z,100.00
2023-10-23T23:50:36.722Z,100.00
2023-10-23T23:53:03.875Z,100.00
2023-10-23T23:55:32.069Z,100.00
2023-10-23T23:57:59.230Z,100.00
